createdAt,value
2018-08-29T00:01:12.966Z,99.90
2018-08-29T00:03:41.512Z,99.90
2018-08-29T00:06:10.332Z,99.90
2018-08-29T00:08:43.830Z,99.90
2018-08-29T00:11:12.080Z,99.90
2018-08-29T00:13:40.322Z,99.90
2018-08-29T00:16:08.500Z,99.90
2018-08-29T00:18:36.728Z,99.90
2018-08-29T00:21:04.888Z,99.90
2018-08-29T00:23:33.086Z,99.90
2018-08-29T00:26:01.237Z,99.90
2018-08-29T00:28:29.399Z,99.90
2018-08-29T00:30:58.442Z,99.90
2018-08-29T00:33:26.617Z,99.90
2018-08-29T00:35:54.841Z,99.90
2018-08-29T00:38:23.241Z,99.90
2018-08-29T00:40:51.463Z,99.90
2018-08-29T00:43:19.690Z,99.90
2018-08-29T00:45:47.874Z,99.90
2018-08-29T00:48:16.449Z,99.90
2018-08-29T00:50:44.710Z,99.90
2018-08-29T00:53:12.910Z,99.90
2018-08-29T00:55:41.167Z,99.90
2018-08-29T00:58:09.439Z,99.90
2018-08-29T01:00:38.522Z,99.90
2018-08-29T01:03:06.715Z,99.90
2018-08-29T01:05:35.280Z,99.90
2018-08-29T01:08:03.574Z,99.90
2018-08-29T01:13:24.452Z,99.90
2018-08-29T01:15:53.086Z,99.90
2018-08-29T01:18:21.885Z,99.90
2018-08-29T01:20:50.081Z,99.90
2018-08-29T01:23:18.263Z,99.90
2018-08-29T01:25:46.935Z,99.90
2018-08-29T01:28:15.170Z,99.90
2018-08-29T01:30:43.400Z,99.90
2018-08-29T01:33:11.999Z,99.90
2018-08-29T01:35:40.174Z,99.90
2018-08-29T01:38:08.605Z,99.90
2018-08-29T01:40:36.823Z,99.90
2018-08-29T01:43:05.762Z,99.90
2018-08-29T01:45:33.910Z,99.90
2018-08-29T01:48:02.078Z,99.90
2018-08-29T01:50:30.273Z,99.90
2018-08-29T01:52:58.563Z,99.90
2018-08-29T01:55:26.941Z,99.90
2018-08-29T01:57:55.162Z,99.90
2018-08-29T02:00:23.382Z,99.90
2018-08-29T02:02:51.546Z,99.90
2018-08-29T02:05:19.720Z,99.90
2018-08-29T02:07:47.950Z,99.90
2018-08-29T02:10:16.126Z,99.90
2018-08-29T02:12:44.342Z,99.90
2018-08-29T02:15:12.517Z,99.90
2018-08-29T02:17:42.676Z,99.90
2018-08-29T02:20:11.550Z,99.90
2018-08-29T02:22:39.977Z,99.90
2018-08-29T02:25:08.173Z,99.90
2018-08-29T02:27:36.370Z,99.90
2018-08-29T02:30:05.355Z,99.90
2018-08-29T02:32:33.541Z,99.90
2018-08-29T02:35:02.287Z,99.90
2018-08-29T02:37:30.598Z,99.90
2018-08-29T02:39:58.794Z,99.90
2018-08-29T02:42:32.504Z,99.90
2018-08-29T02:45:01.758Z,99.90
2018-08-29T02:47:29.957Z,99.90
2018-08-29T02:49:58.194Z,99.90
2018-08-29T02:52:26.554Z,99.90
2018-08-29T02:54:58.343Z,99.90
2018-08-29T02:57:26.524Z,99.90
2018-08-29T02:59:54.790Z,99.90
2018-08-29T03:02:22.987Z,99.90
2018-08-29T03:04:51.134Z,99.90
2018-08-29T03:07:23.134Z,99.90
2018-08-29T03:09:52.276Z,99.90
2018-08-29T03:12:20.423Z,99.90
2018-08-29T03:14:48.621Z,99.90
2018-08-29T03:17:16.822Z,99.90
2018-08-29T03:19:45.057Z,99.90
2018-08-29T03:22:13.297Z,99.90
2018-08-29T03:24:41.492Z,99.90
2018-08-29T03:27:10.745Z,99.90
2018-08-29T03:29:38.935Z,99.90
2018-08-29T03:32:07.484Z,99.90
2018-08-29T03:34:35.670Z,99.90
2018-08-29T03:37:03.958Z,99.90
2018-08-29T03:39:32.176Z,99.90
2018-08-29T03:42:00.950Z,99.90
2018-08-29T03:44:29.119Z,99.90
2018-08-29T03:46:57.308Z,99.90
2018-08-29T03:49:25.510Z,99.90
2018-08-29T03:51:53.846Z,99.90
2018-08-29T03:54:22.238Z,99.90
2018-08-29T03:56:50.425Z,99.90
2018-08-29T03:59:19.195Z,99.90
2018-08-29T04:01:47.366Z,99.90
2018-08-29T04:04:15.568Z,99.90
2018-08-29T04:06:43.896Z,99.90
2018-08-29T04:09:12.409Z,99.90
2018-08-29T04:11:40.882Z,99.90
2018-08-29T04:14:09.916Z,99.90
2018-08-29T04:16:38.134Z,99.90
2018-08-29T04:19:06.710Z,99.90
2018-08-29T04:21:34.913Z,99.90
2018-08-29T04:24:03.118Z,99.90
2018-08-29T04:26:31.661Z,99.90
2018-08-29T04:29:00.153Z,99.90
2018-08-29T04:31:28.378Z,99.90
2018-08-29T04:33:56.692Z,99.90
2018-08-29T04:36:24.827Z,99.90
2018-08-29T04:38:52.963Z,99.90
2018-08-29T04:41:21.173Z,99.90
2018-08-29T04:43:50.869Z,99.90
2018-08-29T04:46:19.119Z,99.90
2018-08-29T04:48:47.632Z,99.90
2018-08-29T04:51:16.032Z,99.90
2018-08-29T04:53:44.221Z,99.90
2018-08-29T04:56:12.581Z,99.90
2018-08-29T04:58:40.839Z,99.90
2018-08-29T05:01:09.033Z,99.90
2018-08-29T05:03:38.143Z,99.90
2018-08-29T05:06:07.023Z,99.90
2018-08-29T05:08:35.379Z,99.90
2018-08-29T05:11:03.603Z,99.90
2018-08-29T05:13:31.793Z,99.90
2018-08-29T05:15:59.983Z,99.90
2018-08-29T05:18:28.214Z,99.90
2018-08-29T05:20:57.157Z,99.90
2018-08-29T05:23:25.335Z,99.90
2018-08-29T05:25:53.502Z,99.90
2018-08-29T05:28:21.720Z,99.90
2018-08-29T05:30:49.925Z,99.90
2018-08-29T05:33:19.729Z,99.90
2018-08-29T05:35:47.938Z,99.90
2018-08-29T05:38:16.150Z,99.90
2018-08-29T05:40:44.337Z,99.90
2018-08-29T05:43:12.542Z,99.90
2018-08-29T05:45:40.750Z,99.90
2018-08-29T05:48:09.231Z,99.90
2018-08-29T05:50:37.263Z,99.90
2018-08-29T05:53:05.678Z,99.90
2018-08-29T05:55:33.843Z,99.90
2018-08-29T05:58:02.060Z,99.90
2018-08-29T06:00:30.239Z,99.90
2018-08-29T06:02:58.442Z,99.90
2018-08-29T06:05:26.967Z,99.90
2018-08-29T06:07:55.141Z,99.90
2018-08-29T06:10:23.405Z,99.90
2018-08-29T06:12:51.640Z,99.90
2018-08-29T06:15:19.809Z,99.90
2018-08-29T06:17:48.050Z,99.90
2018-08-29T06:20:16.279Z,99.90
2018-08-29T06:22:44.478Z,99.90
2018-08-29T06:25:12.677Z,99.90
2018-08-29T06:27:41.936Z,99.90
2018-08-29T06:30:10.158Z,99.90
2018-08-29T06:32:38.482Z,99.90
2018-08-29T06:35:06.765Z,99.90
2018-08-29T06:37:35.151Z,99.90
2018-08-29T06:40:03.574Z,99.90
2018-08-29T06:42:31.778Z,99.90
2018-08-29T06:44:59.958Z,99.90
2018-08-29T06:47:28.190Z,99.90
2018-08-29T06:49:56.489Z,99.90
2018-08-29T06:52:25.089Z,99.90
2018-08-29T06:54:54.749Z,99.90
2018-08-29T06:57:23.066Z,99.90
2018-08-29T06:59:51.237Z,99.90
2018-08-29T07:02:19.705Z,99.90
2018-08-29T07:04:47.882Z,99.90
2018-08-29T07:07:16.076Z,99.90
2018-08-29T07:09:44.278Z,99.90
2018-08-29T07:12:12.489Z,99.90
2018-08-29T07:14:40.706Z,99.90
2018-08-29T07:17:08.894Z,99.90
2018-08-29T07:19:37.092Z,99.90
2018-08-29T07:22:05.321Z,99.90
2018-08-29T07:24:34.214Z,99.90
2018-08-29T07:27:02.614Z,99.90
2018-08-29T07:29:30.886Z,99.90
2018-08-29T07:31:58.974Z,99.90
2018-08-29T07:34:27.665Z,99.90
2018-08-29T07:36:55.856Z,99.90
2018-08-29T07:39:24.778Z,99.90
2018-08-29T07:41:52.940Z,99.90
2018-08-29T07:44:21.177Z,99.90
2018-08-29T07:46:49.337Z,99.90
2018-08-29T07:49:18.259Z,99.90
2018-08-29T07:51:50.571Z,99.90
2018-08-29T07:54:18.721Z,99.90
2018-08-29T07:56:47.126Z,99.90
2018-08-29T07:59:15.424Z,99.90
2018-08-29T08:01:44.474Z,99.90
2018-08-29T08:04:12.727Z,99.90
2018-08-29T08:06:41.246Z,99.90
2018-08-29T08:09:15.208Z,99.90
2018-08-29T08:11:43.527Z,99.90
2018-08-29T08:14:11.706Z,99.90
2018-08-29T08:16:39.956Z,99.90
2018-08-29T08:19:08.083Z,99.90
2018-08-29T08:21:36.248Z,99.90
2018-08-29T08:24:04.469Z,99.90
2018-08-29T08:26:32.653Z,99.50
2018-08-29T08:29:00.877Z,98.80
2018-08-29T08:31:29.100Z,97.50
2018-08-29T08:33:57.318Z,97.50
2018-08-29T08:36:25.493Z,97.10
2018-08-29T08:38:53.713Z,97.40
2018-08-29T08:41:21.909Z,96.90
2018-08-29T08:43:50.086Z,96.20
2018-08-29T08:46:18.417Z,95.60
2018-08-29T08:48:46.787Z,95.80
2018-08-29T08:51:14.993Z,94.80
2018-08-29T08:53:43.315Z,94.00
2018-08-29T08:56:11.533Z,94.60
2018-08-29T08:58:39.835Z,93.50
2018-08-29T09:01:10.099Z,93.30
2018-08-29T09:03:38.257Z,93.80
2018-08-29T09:06:06.443Z,93.90
2018-08-29T09:08:34.618Z,92.90
2018-08-29T09:11:03.007Z,92.00
2018-08-29T09:13:31.318Z,91.70
2018-08-29T09:15:59.525Z,91.70
2018-08-29T09:18:27.730Z,92.80
2018-08-29T09:20:55.949Z,93.10
2018-08-29T09:23:24.159Z,92.90
2018-08-29T09:25:52.334Z,92.20
2018-08-29T09:28:20.841Z,91.60
2018-08-29T09:30:49.244Z,92.80
2018-08-29T09:33:17.446Z,91.90
2018-08-29T09:35:45.638Z,92.40
2018-08-29T09:38:13.904Z,92.50
2018-08-29T09:40:42.170Z,91.60
2018-08-29T09:43:11.685Z,92.30
2018-08-29T09:45:39.831Z,91.20
2018-08-29T09:48:08.061Z,91.60
2018-08-29T09:50:36.287Z,91.70
2018-08-29T09:53:04.614Z,92.10
2018-08-29T09:55:32.826Z,91.70
2018-08-29T09:58:01.322Z,92.30
2018-08-29T10:00:34.866Z,92.20
2018-08-29T10:03:07.282Z,92.20
2018-08-29T10:05:35.451Z,91.90
2018-08-29T10:08:03.650Z,91.90
2018-08-29T10:10:31.933Z,92.00
2018-08-29T10:13:00.174Z,91.60
2018-08-29T10:15:28.539Z,91.30
2018-08-29T10:17:56.855Z,91.50
2018-08-29T10:20:25.106Z,91.40
2018-08-29T10:22:53.582Z,92.10
2018-08-29T10:25:21.735Z,90.90
2018-08-29T10:27:49.951Z,90.70
2018-08-29T10:30:18.661Z,90.30
2018-08-29T10:32:46.870Z,89.10
2018-08-29T10:35:15.081Z,88.50
2018-08-29T10:37:43.294Z,90.20
2018-08-29T10:40:11.453Z,89.30
2018-08-29T10:42:39.678Z,90.30
2018-08-29T10:45:14.520Z,89.20
2018-08-29T10:47:42.707Z,88.40
2018-08-29T10:50:10.899Z,86.50
2018-08-29T10:52:39.078Z,86.40
2018-08-29T10:55:07.275Z,87.10
2018-08-29T10:57:35.542Z,87.00
2018-08-29T11:00:03.726Z,86.50
2018-08-29T11:02:31.946Z,84.70
2018-08-29T11:05:00.458Z,86.70
2018-08-29T11:07:28.626Z,87.10
2018-08-29T11:09:56.830Z,85.70
2018-08-29T11:12:25.542Z,86.90
2018-08-29T11:14:53.750Z,86.70
2018-08-29T11:17:21.982Z,86.00
2018-08-29T11:19:50.163Z,87.80
2018-08-29T11:22:18.433Z,86.70
2018-08-29T11:24:46.537Z,87.50
2018-08-29T11:27:14.705Z,86.00
2018-08-29T11:29:42.879Z,85.50
2018-08-29T11:32:11.077Z,85.20
2018-08-29T11:34:39.321Z,85.00
2018-08-29T11:37:07.482Z,85.30
2018-08-29T11:39:35.694Z,86.00
2018-08-29T11:42:04.025Z,85.90
2018-08-29T11:44:33.194Z,84.60
2018-08-29T11:47:01.374Z,85.20
2018-08-29T11:49:29.630Z,86.30
2018-08-29T11:51:58.466Z,86.00
2018-08-29T11:54:26.902Z,86.50
2018-08-29T11:56:55.050Z,86.80
2018-08-29T11:59:23.257Z,86.20
2018-08-29T12:01:51.475Z,85.70
2018-08-29T12:04:19.677Z,85.80
2018-08-29T12:06:47.851Z,87.20
2018-08-29T12:09:16.085Z,86.40
2018-08-29T12:11:44.560Z,86.40
2018-08-29T12:14:12.738Z,86.20
2018-08-29T12:16:40.966Z,87.50
2018-08-29T12:19:09.092Z,88.10
2018-08-29T12:21:37.262Z,88.40
2018-08-29T12:24:05.530Z,88.70
2018-08-29T12:26:34.208Z,88.80
2018-08-29T12:29:02.438Z,89.00
2018-08-29T12:31:30.633Z,89.00
2018-08-29T12:33:59.649Z,88.60
2018-08-29T12:36:27.834Z,88.80
2018-08-29T12:38:56.063Z,89.60
2018-08-29T12:41:24.283Z,88.10
2018-08-29T12:43:52.545Z,88.10
2018-08-29T12:46:20.697Z,88.00
2018-08-29T12:48:49.002Z,87.90
2018-08-29T12:51:17.222Z,88.10
2018-08-29T12:53:45.450Z,87.40
2018-08-29T12:56:13.717Z,87.10
2018-08-29T12:58:41.978Z,88.50
2018-08-29T13:01:10.282Z,88.70
2018-08-29T13:03:38.515Z,89.00
2018-08-29T13:06:06.821Z,87.90
2018-08-29T13:08:37.393Z,88.10
2018-08-29T13:11:07.747Z,88.40
2018-08-29T13:13:35.937Z,88.10
2018-08-29T13:16:04.146Z,86.20
2018-08-29T13:18:32.499Z,85.90
2018-08-29T13:21:00.929Z,85.30
2018-08-29T13:23:30.863Z,83.90
2018-08-29T13:25:59.060Z,83.80
2018-08-29T13:28:27.241Z,85.70
2018-08-29T13:30:55.418Z,86.10
2018-08-29T13:33:23.586Z,86.10
2018-08-29T13:35:51.814Z,86.80
2018-08-29T13:38:19.989Z,86.60
2018-08-29T13:40:48.191Z,86.60
2018-08-29T13:43:16.486Z,84.80
2018-08-29T13:45:44.764Z,85.30
2018-08-29T13:48:14.887Z,85.70
2018-08-29T13:50:43.085Z,85.60
2018-08-29T13:53:11.437Z,86.00
2018-08-29T13:55:39.596Z,86.80
2018-08-29T13:58:07.854Z,85.90
2018-08-29T14:00:36.059Z,86.00
2018-08-29T14:03:04.271Z,87.00
2018-08-29T14:05:32.468Z,87.90
2018-08-29T14:08:00.679Z,89.60
2018-08-29T14:10:28.880Z,90.00
2018-08-29T14:12:57.277Z,90.00
2018-08-29T14:15:25.463Z,90.30
2018-08-29T14:17:53.631Z,90.70
2018-08-29T14:20:21.819Z,90.80
2018-08-29T14:22:49.989Z,90.60
2018-08-29T14:25:18.899Z,90.40
2018-08-29T14:27:47.646Z,90.90
2018-08-29T14:30:16.489Z,90.50
2018-08-29T14:32:44.777Z,90.70
2018-08-29T14:35:12.990Z,90.70
2018-08-29T14:37:42.814Z,91.20
2018-08-29T14:40:11.001Z,91.80
2018-08-29T14:42:39.337Z,92.20
2018-08-29T14:45:07.559Z,92.20
2018-08-29T14:47:35.755Z,92.80
2018-08-29T14:50:03.934Z,93.70
2018-08-29T14:52:32.135Z,94.70
2018-08-29T14:55:00.571Z,95.90
2018-08-29T14:57:30.043Z,97.40
2018-08-29T15:02:16.756Z,99.30
2018-08-29T15:04:46.176Z,99.90
2018-08-29T15:07:14.504Z,99.90
2018-08-29T15:09:43.094Z,99.90
2018-08-29T15:12:11.987Z,99.90
2018-08-29T15:14:40.378Z,99.90
2018-08-29T15:17:08.745Z,99.90
2018-08-29T15:19:36.923Z,99.90
2018-08-29T15:22:05.277Z,99.90
2018-08-29T15:24:33.363Z,99.90
2018-08-29T15:27:01.558Z,99.90
2018-08-29T15:29:30.169Z,99.90
2018-08-29T15:31:58.342Z,99.90
2018-08-29T15:34:26.524Z,99.90
2018-08-29T15:36:54.720Z,99.90
2018-08-29T15:39:22.912Z,99.90
2018-08-29T15:41:51.113Z,99.90
2018-08-29T15:44:19.315Z,99.90
2018-08-29T15:46:47.494Z,99.90
2018-08-29T15:49:16.302Z,99.90
2018-08-29T15:51:44.386Z,99.90
2018-08-29T15:54:12.588Z,99.90
2018-08-29T15:56:41.326Z,99.90
2018-08-29T15:59:09.499Z,99.90
2018-08-29T16:01:37.668Z,99.90
2018-08-29T16:04:05.895Z,99.90
2018-08-29T16:06:34.061Z,99.90
2018-08-29T16:09:02.267Z,99.90
2018-08-29T16:11:30.512Z,99.90
2018-08-29T16:13:59.217Z,99.90
2018-08-29T16:16:27.468Z,99.90
2018-08-29T16:18:55.622Z,99.90
2018-08-29T16:21:23.799Z,99.90
2018-08-29T16:23:52.062Z,99.90
2018-08-29T16:26:20.191Z,99.90
2018-08-29T16:28:48.424Z,99.90
2018-08-29T16:31:17.934Z,99.90
2018-08-29T16:33:46.899Z,99.90
2018-08-29T16:36:15.031Z,99.90
2018-08-29T16:38:43.234Z,99.90
2018-08-29T16:41:11.433Z,99.90
2018-08-29T16:43:39.597Z,99.90
2018-08-29T16:46:08.617Z,99.90
2018-08-29T16:48:36.766Z,99.90
2018-08-29T16:51:04.967Z,99.90
2018-08-29T16:53:33.162Z,99.90
2018-08-29T16:56:01.341Z,99.90
2018-08-29T16:58:29.514Z,99.90
2018-08-29T17:00:57.699Z,99.90
2018-08-29T17:03:25.907Z,99.90
2018-08-29T17:05:54.409Z,99.90
2018-08-29T17:08:22.568Z,99.90
2018-08-29T17:10:50.937Z,99.90
2018-08-29T17:13:19.157Z,99.90
2018-08-29T17:15:47.357Z,99.90
2018-08-29T17:18:15.813Z,99.90
2018-08-29T17:20:44.062Z,99.90
2018-08-29T17:23:12.146Z,99.90
2018-08-29T17:25:40.400Z,99.90
2018-08-29T17:28:08.608Z,99.90
2018-08-29T17:30:36.810Z,99.90
2018-08-29T17:33:05.933Z,99.90
2018-08-29T17:35:34.078Z,99.90
2018-08-29T17:38:02.281Z,99.90
2018-08-29T17:40:30.474Z,99.90
2018-08-29T17:42:58.672Z,99.90
2018-08-29T17:45:26.899Z,99.90
2018-08-29T17:47:55.090Z,99.90
2018-08-29T17:50:23.289Z,99.90
2018-08-29T17:52:51.498Z,99.90
2018-08-29T17:55:20.418Z,99.90
2018-08-29T17:57:48.602Z,99.90
2018-08-29T18:00:16.787Z,99.90
2018-08-29T18:02:47.126Z,99.90
2018-08-29T18:05:15.317Z,99.90
2018-08-29T18:07:43.503Z,99.90
2018-08-29T18:10:11.703Z,99.90
2018-08-29T18:12:39.910Z,99.90
2018-08-29T18:15:08.106Z,99.90
2018-08-29T18:17:36.468Z,99.90
2018-08-29T18:20:04.510Z,99.90
2018-08-29T18:22:32.739Z,99.90
2018-08-29T18:25:00.946Z,99.90
2018-08-29T18:27:29.126Z,99.90
2018-08-29T18:29:57.333Z,99.90
2018-08-29T18:32:26.265Z,99.90
2018-08-29T18:34:54.525Z,99.90
2018-08-29T18:37:24.603Z,99.90
2018-08-29T18:39:52.802Z,99.90
2018-08-29T18:42:20.986Z,99.90
2018-08-29T18:44:49.186Z,99.90
2018-08-29T18:47:17.362Z,99.90
2018-08-29T18:49:45.550Z,99.90
2018-08-29T18:52:13.764Z,99.90
2018-08-29T18:54:42.233Z,99.90
2018-08-29T18:57:11.214Z,99.90
2018-08-29T18:59:39.389Z,99.90
2018-08-29T19:02:07.562Z,99.90
2018-08-29T19:04:35.738Z,99.90
2018-08-29T19:07:03.946Z,99.90
2018-08-29T19:09:32.169Z,99.90
2018-08-29T19:12:00.348Z,99.90
2018-08-29T19:14:28.695Z,99.90
2018-08-29T19:16:56.978Z,99.90
2018-08-29T19:19:25.272Z,99.90
2018-08-29T19:21:53.623Z,99.90
2018-08-29T19:24:21.798Z,99.90
2018-08-29T19:26:50.242Z,99.90
2018-08-29T19:29:19.055Z,99.90
2018-08-29T19:31:47.280Z,99.90
2018-08-29T19:34:15.516Z,99.90
2018-08-29T19:36:43.740Z,99.90
2018-08-29T19:39:11.915Z,99.90
2018-08-29T19:41:40.092Z,99.90
2018-08-29T19:44:08.385Z,99.90
2018-08-29T19:46:36.575Z,99.90
2018-08-29T19:49:05.091Z,99.90
2018-08-29T19:51:33.502Z,99.90
2018-08-29T19:54:01.624Z,99.90
2018-08-29T19:56:30.407Z,99.90
2018-08-29T19:58:59.521Z,99.90
2018-08-29T20:01:27.680Z,99.90
2018-08-29T20:03:56.858Z,99.90
2018-08-29T20:06:25.142Z,99.90
2018-08-29T20:08:53.357Z,99.90
2018-08-29T20:11:21.508Z,99.90
2018-08-29T20:13:49.716Z,99.90
2018-08-29T20:16:17.837Z,99.90
2018-08-29T20:18:51.358Z,99.90
2018-08-29T20:21:19.562Z,99.90
2018-08-29T20:23:47.768Z,99.90
2018-08-29T20:26:16.326Z,99.90
2018-08-29T20:28:44.478Z,99.90
2018-08-29T20:31:13.547Z,99.90
2018-08-29T20:33:41.771Z,99.90
2018-08-29T20:36:09.985Z,99.90
2018-08-29T20:38:38.286Z,99.90
2018-08-29T20:41:06.489Z,99.90
2018-08-29T20:43:35.538Z,99.90
2018-08-29T20:46:03.711Z,99.90
2018-08-29T20:48:31.927Z,99.90
2018-08-29T20:51:00.047Z,99.90
2018-08-29T20:53:28.258Z,99.90
2018-08-29T20:55:57.254Z,99.90
2018-08-29T20:58:25.459Z,99.90
2018-08-29T21:00:53.719Z,99.90
2018-08-29T21:03:21.805Z,99.90
2018-08-29T21:05:49.998Z,99.90
2018-08-29T21:08:18.178Z,99.90
2018-08-29T21:10:46.350Z,99.90
2018-08-29T21:13:14.539Z,99.90
2018-08-29T21:15:42.693Z,99.90
2018-08-29T21:18:10.895Z,99.90
2018-08-29T21:20:39.182Z,99.90
2018-08-29T21:23:08.182Z,99.90
2018-08-29T21:25:36.450Z,99.90
2018-08-29T21:28:28.173Z,99.90
2018-08-29T21:31:07.779Z,99.90
2018-08-29T21:33:54.146Z,99.90
2018-08-29T21:37:37.693Z,99.90
2018-08-29T21:40:05.930Z,99.90
2018-08-29T21:42:34.094Z,99.90
2018-08-29T21:45:13.582Z,99.90
2018-08-29T21:47:48.638Z,99.90
2018-08-29T21:50:28.482Z,99.90
2018-08-29T21:53:04.922Z,99.90
2018-08-29T21:55:44.425Z,99.90
2018-08-29T21:58:27.695Z,99.90
2018-08-29T22:01:13.074Z,99.90
2018-08-29T22:03:56.912Z,99.90
2018-08-29T22:06:25.117Z,99.90
2018-08-29T22:08:53.633Z,99.90
2018-08-29T22:11:23.845Z,99.90
2018-08-29T22:13:52.061Z,99.90
2018-08-29T22:16:20.315Z,99.90
2018-08-29T22:18:49.410Z,99.90
2018-08-29T22:21:17.587Z,99.90
2018-08-29T22:23:45.809Z,99.90
2018-08-29T22:26:13.974Z,99.90
2018-08-29T22:28:42.156Z,99.90
2018-08-29T22:31:10.449Z,99.90
2018-08-29T22:33:39.295Z,99.90
2018-08-29T22:36:07.552Z,99.90
2018-08-29T22:38:35.713Z,99.90
2018-08-29T22:41:03.961Z,99.90
2018-08-29T22:43:32.138Z,99.90
2018-08-29T22:46:01.071Z,99.90
2018-08-29T22:48:29.905Z,99.90
2018-08-29T22:50:58.054Z,99.90
2018-08-29T22:53:26.610Z,99.90
2018-08-29T22:55:54.842Z,99.90
2018-08-29T22:58:23.088Z,99.90
2018-08-29T23:00:51.253Z,99.90
2018-08-29T23:03:19.971Z,99.90
2018-08-29T23:05:48.141Z,99.90
2018-08-29T23:08:16.597Z,99.90
2018-08-29T23:10:44.765Z,99.90
2018-08-29T23:13:13.310Z,99.90
2018-08-29T23:15:41.487Z,99.90
2018-08-29T23:18:09.682Z,99.90
2018-08-29T23:20:37.857Z,99.90
2018-08-29T23:23:06.049Z,99.90
2018-08-29T23:25:34.211Z,99.90
2018-08-29T23:28:02.535Z,99.90
2018-08-29T23:30:30.695Z,99.90
2018-08-29T23:32:59.018Z,99.90
2018-08-29T23:35:27.194Z,99.90
2018-08-29T23:37:55.367Z,99.90
2018-08-29T23:40:23.533Z,99.90
2018-08-29T23:42:51.705Z,99.90
2018-08-29T23:45:19.901Z,99.90
2018-08-29T23:47:48.101Z,99.90
2018-08-29T23:50:16.251Z,99.90
2018-08-29T23:52:44.425Z,99.90
2018-08-29T23:55:12.872Z,99.90
2018-08-29T23:57:41.102Z,99.90
